Time;durP1;ratioP1;P1;durP2;ratioP2;P2;SDS_P1;SDS_P2;PMS_P1;PMS_P2;Temp;Humidity;BMP_temperature;BMP_pressure;BME280_temperature;BME280_humidity;BME280_pressure;Samples;Min_cycle;Max_cycle;Signal;HPM_P1;HPM_P2
2022/11/22 00:00:49;;;;;;;2.85;2.50;;;;;;;6.75;58.34;94415.28;5030151;28;20036;-68
2022/11/22 00:03:15;;;;;;;3.95;2.97;;;;;;;6.77;57.97;94412.91;5029376;28;20025;-69
2022/11/22 00:05:40;;;;;;;3.50;2.40;;;;;;;6.76;58.50;94411.34;5029424;28;20033;-69
2022/11/22 00:08:06;;;;;;;2.50;2.28;;;;;;;6.78;58.05;94409.00;5029276;28;20055;-68
2022/11/22 00:10:31;;;;;;;4.65;3.28;;;;;;;6.81;58.09;94402.66;5029141;28;20033;-69
2022/11/22 00:12:57;;;;;;;3.78;2.72;;;;;;;6.80;58.32;94403.84;5035874;28;20025;-69
2022/11/22 00:15:22;;;;;;;4.13;2.72;;;;;;;6.77;57.98;94410.94;5030969;28;20112;-68
2022/11/22 00:17:47;;;;;;;3.95;3.17;;;;;;;6.76;58.12;94417.59;5029904;28;20041;-69
2022/11/22 00:20:13;;;;;;;6.30;4.20;;;;;;;6.70;58.43;94415.78;5028800;28;20032;-69
2022/11/22 00:22:38;;;;;;;5.45;3.30;;;;;;;6.63;58.57;94419.44;5030966;28;20025;-68
2022/11/22 00:25:05;;;;;;;5.03;3.17;;;;;;;6.58;58.88;94417.97;5029160;28;20033;-68
2022/11/22 00:27:30;;;;;;;3.58;2.90;;;;;;;6.63;59.02;94417.47;5011352;28;20380;-68
2022/11/22 00:29:56;;;;;;;3.47;2.75;;;;;;;6.64;58.66;94416.28;5028864;28;20032;-69
2022/11/22 00:32:21;;;;;;;4.47;3.20;;;;;;;6.70;58.58;94418.50;5028524;28;20049;-68
2022/11/22 00:34:47;;;;;;;3.80;3.13;;;;;;;6.72;58.41;94413.41;5029228;28;20033;-69
2022/11/22 00:37:12;;;;;;;4.25;2.95;;;;;;;6.71;58.68;94414.59;5028280;28;20032;-69
2022/11/22 00:39:38;;;;;;;4.68;3.50;;;;;;;6.70;58.67;94419.28;5029155;28;20107;-69
2022/11/22 00:42:03;;;;;;;3.92;2.92;;;;;;;6.75;58.24;94415.28;5028718;28;20033;-69
2022/11/22 00:44:28;;;;;;;3.25;2.70;;;;;;;6.65;58.38;94415.13;5028946;28;20025;-68
2022/11/22 00:46:54;;;;;;;3.78;3.00;;;;;;;6.72;58.41;94411.44;5028453;28;20036;-69
2022/11/22 00:49:19;;;;;;;5.20;3.45;;;;;;;6.63;58.14;94412.03;5007568;28;20034;-69
2022/11/22 00:51:45;;;;;;;4.32;3.15;;;;;;;6.68;58.23;94404.53;5008741;28;20441;-69
2022/11/22 00:54:10;;;;;;;9.50;4.90;;;;;;;6.66;58.14;94404.94;5008510;28;20092;-70
2022/11/22 00:56:36;;;;;;;6.88;3.63;;;;;;;6.60;58.42;94404.69;5009183;28;20030;-68
2022/11/22 00:59:01;;;;;;;3.95;2.90;;;;;;;6.50;58.65;94404.91;5008281;28;20025;-68
2022/11/22 01:01:26;;;;;;;3.00;2.45;;;;;;;6.51;58.56;94406.44;5008909;28;20030;-69
2022/11/22 01:03:52;;;;;;;3.75;2.83;;;;;;;6.52;58.57;94407.97;5008190;28;20362;-67
2022/11/22 01:06:17;;;;;;;2.95;2.47;;;;;;;6.50;58.69;94407.66;5008034;28;20018;-68
2022/11/22 01:08:43;;;;;;;3.25;2.58;;;;;;;6.51;58.29;94411.91;5008206;28;20030;-69
2022/11/22 01:11:08;;;;;;;3.05;2.35;;;;;;;6.43;58.53;94405.06;5008250;28;20407;-69
2022/11/22 01:13:34;;;;;;;4.10;2.63;;;;;;;6.38;58.50;94403.59;4991451;28;20029;-68
2022/11/22 01:16:00;;;;;;;3.25;2.67;;;;;;;6.35;58.77;94407.94;5007834;28;20503;-67
2022/11/22 01:18:26;;;;;;;3.42;3.13;;;;;;;6.33;58.76;94415.03;5008874;28;20025;-68
2022/11/22 01:20:51;;;;;;;4.22;3.00;;;;;;;6.35;58.54;94410.66;4990108;28;20072;-68
2022/11/22 01:23:17;;;;;;;2.75;2.38;;;;;;;6.30;58.57;94404.94;5008594;28;20112;-68
2022/11/22 01:25:43;;;;;;;3.60;2.80;;;;;;;6.33;58.89;94404.88;5007609;28;20026;-68
2022/11/22 01:28:08;;;;;;;2.90;2.55;;;;;;;6.26;58.71;94401.53;4992766;28;20026;-68
2022/11/22 01:30:34;;;;;;;3.80;3.22;;;;;;;6.15;59.03;94409.16;5008237;28;20029;-69
2022/11/22 01:32:59;;;;;;;3.83;3.17;;;;;;;6.08;59.34;94418.25;5007363;28;20057;-69
2022/11/22 01:35:25;;;;;;;3.97;2.85;;;;;;;6.04;59.49;94401.19;5008843;28;20092;-69
2022/11/22 01:37:50;;;;;;;4.40;3.10;;;;;;;5.94;59.68;94399.44;5007260;28;20030;-69
2022/11/22 01:40:16;;;;;;;3.45;2.67;;;;;;;5.94;59.86;94392.00;5008402;28;20531;-69
2022/11/22 01:42:47;;;;;;;3.35;2.55;;;;;;;5.77;60.24;94390.38;5007306;28;20026;-69
2022/11/22 01:45:28;;;;;;;2.90;2.47;;;;;;;5.81;60.00;94391.84;5008043;28;20563;-68
2022/11/22 01:48:04;;;;;;;3.67;3.00;;;;;;;5.82;60.19;94389.88;5015593;28;20041;-68
2022/11/22 01:50:32;;;;;;;2.97;2.67;;;;;;;5.73;60.44;94386.94;5027324;28;20060;-68
2022/11/22 01:52:59;;;;;;;3.22;2.75;;;;;;;5.78;60.16;94387.22;5010298;28;20025;-68
2022/11/22 01:55:25;;;;;;;5.05;3.30;;;;;;;5.76;60.17;94388.84;5009098;28;20033;-68
2022/11/22 01:57:50;;;;;;;4.07;3.28;;;;;;;5.82;60.33;94384.44;5009632;28;20033;-68
2022/11/22 02:00:16;;;;;;;4.30;3.30;;;;;;;5.80;59.94;94381.38;5009152;28;20030;-69
2022/11/22 02:02:43;;;;;;;3.47;2.90;;;;;;;5.69;60.28;94375.34;5027607;28;20052;-68
2022/11/22 02:05:10;;;;;;;4.03;3.13;;;;;;;5.74;60.36;94392.00;4993472;28;20095;-68
2022/11/22 02:07:47;;;;;;;8.82;3.90;;;;;;;5.74;60.43;94399.41;4992832;28;20029;-68
2022/11/22 02:10:14;;;;;;;4.30;3.30;;;;;;;5.78;60.31;94387.22;5010095;28;20178;-68
2022/11/22 02:12:40;;;;;;;3.90;3.40;;;;;;;5.81;60.02;94388.34;5008991;28;20033;-68
2022/11/22 02:15:06;;;;;;;3.75;3.00;;;;;;;5.82;60.10;94390.66;4993299;28;20029;-68
2022/11/22 02:17:32;;;;;;;5.13;3.60;;;;;;;5.79;60.12;94393.44;5008768;28;20049;-68
2022/11/22 02:19:57;;;;;;;6.95;4.28;;;;;;;5.88;59.97;94396.38;5026813;28;20034;-68
2022/11/22 02:22:46;;;;;;;3.72;3.13;;;;;;;5.96;59.84;94388.84;5026730;28;20025;-68
2022/11/22 02:25:21;;;;;;;4.97;3.40;;;;;;;5.86;60.01;94382.41;5009887;28;20033;-68
2022/11/22 02:27:47;;;;;;;4.25;3.15;;;;;;;5.91;59.99;94386.59;4993321;28;20405;-69
2022/11/22 02:30:13;;;;;;;3.45;3.13;;;;;;;5.92;59.81;94388.19;5008679;28;20071;-68
2022/11/22 02:32:38;;;;;;;3.75;3.08;;;;;;;5.95;59.63;94382.63;5011305;28;20037;-68
2022/11/22 02:35:24;;;;;;;3.58;3.28;;;;;;;6.06;59.38;94385.16;5027092;28;20025;-69
2022/11/22 02:37:53;;;;;;;4.30;3.15;;;;;;;6.03;59.36;94388.75;5026074;28;20129;-68
2022/11/22 02:40:18;;;;;;;4.10;3.30;;;;;;;6.01;59.38;94383.69;5009787;28;20411;-68
2022/11/22 02:42:47;;;;;;;3.75;3.28;;;;;;;6.04;59.31;94387.53;5008607;28;20400;-68
2022/11/22 02:45:12;;;;;;;4.40;3.60;;;;;;;5.95;59.33;94381.88;4992885;28;20064;-68
2022/11/22 02:47:38;;;;;;;3.88;3.00;;;;;;;5.98;59.36;94378.31;5025982;28;20523;-68
2022/11/22 02:50:03;;;;;;;4.25;3.22;;;;;;;5.99;59.09;94379.84;5026854;28;20028;-68
2022/11/22 02:52:29;;;;;;;4.65;3.28;;;;;;;6.01;59.04;94375.50;5032440;28;20064;-69
2022/11/22 02:54:54;;;;;;;4.95;3.38;;;;;;;5.96;59.20;94370.53;5029211;28;20025;-68
2022/11/22 02:57:20;;;;;;;4.50;3.50;;;;;;;5.91;59.26;94383.84;5027103;28;20025;-68
2022/11/22 02:59:45;;;;;;;3.78;3.17;;;;;;;5.88;59.42;94380.03;5025890;28;20311;-68
2022/11/22 03:02:10;;;;;;;4.65;3.75;;;;;;;5.85;59.52;94372.69;5026685;28;20392;-68
2022/11/22 03:04:36;;;;;;;3.90;3.20;;;;;;;5.86;59.64;94375.00;5025981;28;20435;-68
2022/11/22 03:07:03;;;;;;;3.85;3.40;;;;;;;5.80;59.75;94371.22;5026204;28;20488;-67
2022/11/22 03:09:28;;;;;;;3.78;3.17;;;;;;;5.77;59.67;94374.78;5026265;28;20032;-68
2022/11/22 03:11:54;;;;;;;4.72;3.10;;;;;;;5.78;60.04;94370.09;5026194;28;20128;-67
2022/11/22 03:14:19;;;;;;;4.20;3.08;;;;;;;5.72;60.02;94367.06;5026014;28;20031;-67
2022/11/22 03:16:45;;;;;;;4.55;3.55;;;;;;;5.67;60.16;94366.78;5025805;28;20036;-69
2022/11/22 03:19:11;;;;;;;4.07;3.40;;;;;;;5.68;60.22;94366.41;5026685;28;20021;-69
2022/11/22 03:21:37;;;;;;;7.07;4.15;;;;;;;5.69;60.03;94367.16;5025981;28;20044;-69
2022/11/22 03:24:03;;;;;;;15.60;7.05;;;;;;;5.66;60.11;94362.53;5026282;28;20021;-69
2022/11/22 03:26:28;;;;;;;10.18;4.85;;;;;;;5.68;60.10;94366.41;5025667;28;20566;-69
2022/11/22 03:28:54;;;;;;;5.72;4.00;;;;;;;5.62;60.24;94361.81;5026128;28;20014;-69
2022/11/22 03:31:19;;;;;;;6.90;4.68;;;;;;;5.49;60.70;94359.72;5028856;28;20037;-69
2022/11/22 03:33:44;;;;;;;5.20;4.00;;;;;;;5.51;60.46;94354.63;5030294;28;20033;-69
2022/11/22 03:36:10;;;;;;;5.57;4.18;;;;;;;5.55;60.36;94368.94;5030354;28;20029;-69
2022/11/22 03:38:35;;;;;;;4.82;3.75;;;;;;;5.50;60.29;94363.22;5031432;28;20103;-70
2022/11/22 03:41:01;;;;;;;4.93;3.80;;;;;;;5.49;60.23;94364.41;5032650;28;20049;-68
2022/11/22 03:43:26;;;;;;;5.32;3.88;;;;;;;5.48;60.12;94366.34;5030767;28;20191;-69
2022/11/22 03:45:52;;;;;;;5.43;3.60;;;;;;;5.41;60.21;94360.28;5030896;28;20022;-69
2022/11/22 03:48:17;;;;;;;5.25;3.97;;;;;;;5.39;60.08;94363.44;5028923;28;20072;-68
2022/11/22 03:50:43;;;;;;;6.07;3.75;;;;;;;5.29;60.32;94361.66;5029788;28;20033;-68
2022/11/22 03:53:08;;;;;;;6.18;4.10;;;;;;;5.32;60.41;94368.97;5029363;28;20026;-69
2022/11/22 03:55:34;;;;;;;3.80;3.40;;;;;;;5.27;60.41;94364.00;5029391;28;20032;-68
2022/11/22 03:57:59;;;;;;;6.15;4.10;;;;;;;5.23;60.51;94374.22;5030268;28;20585;-68
2022/11/22 04:00:25;;;;;;;7.55;4.90;;;;;;;5.20;60.84;94372.31;5028612;28;20539;-68
2022/11/22 04:02:50;;;;;;;7.05;4.50;;;;;;;5.20;60.76;94380.50;5030057;28;20030;-68
2022/11/22 04:05:15;;;;;;;6.72;4.38;;;;;;;5.15;61.05;94378.25;5010944;28;20083;-68
2022/11/22 04:07:41;;;;;;;5.50;4.05;;;;;;;5.13;61.05;94384.09;5029475;28;20070;-68
2022/11/22 04:10:07;;;;;;;8.93;3.80;;;;;;;5.14;61.11;94385.66;5028998;28;20026;-68
2022/11/22 04:12:32;;;;;;;6.85;4.03;;;;;;;5.13;61.10;94389.56;5028510;28;20087;-68
2022/11/22 04:15:07;;;;;;;4.68;4.18;;;;;;;5.13;61.02;94386.84;5029476;28;20518;-69
2022/11/22 04:17:39;;;;;;;7.75;5.13;;;;;;;5.08;61.04;94390.03;5028821;28;20048;-68
2022/11/22 04:23:14;;;;;;;5.80;4.30;;;;;;;5.17;60.70;94393.00;5028903;28;20047;-68
2022/11/22 04:25:40;;;;;;;7.25;4.70;;;;;;;5.19;60.81;94387.91;5011371;28;20033;-68
2022/11/22 04:28:07;;;;;;;5.90;4.38;;;;;;;5.11;60.92;94397.38;5011545;28;20040;-68
2022/11/22 04:33:16;;;;;;;;;;;;;;;5.07;61.02;94405.59;5029978;28;20083;-67
2022/11/22 04:35:42;;;;;;;6.80;3.80;;;;;;;4.97;61.07;94403.06;5028484;28;20360;-68
2022/11/22 04:38:07;;;;;;;4.63;3.75;;;;;;;4.89;61.18;94413.28;5028964;28;20091;-68
2022/11/22 04:40:33;;;;;;;5.35;4.03;;;;;;;4.81;61.15;94411.84;5028626;28;20533;-67
2022/11/22 04:45:43;;;;;;;8.27;5.32;;;;;;;4.72;61.53;94414.34;5031212;28;20071;-69
2022/11/22 04:48:11;;;;;;;6.00;4.97;;;;;;;4.72;61.70;94420.56;5027825;28;20045;-69
2022/11/22 04:53:20;;;;;;;7.57;5.60;;;;;;;4.65;61.70;94425.34;5028480;28;20168;-69
2022/11/22 04:55:45;;;;;;;5.97;4.97;;;;;;;4.71;61.81;94435.34;5028905;28;20033;-69
2022/11/22 04:58:11;;;;;;;7.03;5.38;;;;;;;4.74;61.49;94431.78;5010943;28;20022;-67
2022/11/22 05:00:36;;;;;;;6.15;5.50;;;;;;;4.77;61.28;94432.94;5027932;28;20022;-68
2022/11/22 05:03:02;;;;;;;8.77;6.25;;;;;;;4.70;61.90;94444.72;5028959;28;20017;-69
2022/11/22 05:05:28;;;;;;;9.05;6.25;;;;;;;4.72;62.04;94444.28;5027406;28;20159;-68
2022/11/22 05:07:53;;;;;;;7.15;5.85;;;;;;;4.67;61.98;94452.91;5028641;28;20025;-69
2022/11/22 05:10:19;;;;;;;8.82;6.78;;;;;;;4.76;61.50;94461.34;5027864;28;20040;-69
2022/11/22 05:12:44;;;;;;;8.68;6.05;;;;;;;4.66;61.84;94448.66;5028039;28;20029;-69
2022/11/22 05:15:10;;;;;;;11.18;8.00;;;;;;;4.66;62.12;94445.94;5028151;28;20076;-68
2022/11/22 05:17:37;;;;;;;9.27;8.20;;;;;;;4.64;62.09;94446.31;5027805;28;20036;-68
2022/11/22 05:20:03;;;;;;;13.55;9.98;;;;;;;4.58;62.03;94445.25;5028453;28;20549;-68
2022/11/22 05:25:13;;;;;;;11.07;9.73;;;;;;;4.58;62.27;94439.03;5028405;28;20037;-70
2022/11/22 05:27:38;;;;;;;11.05;9.70;;;;;;;4.56;62.38;94441.41;5027216;28;20053;-69
2022/11/22 05:30:04;;;;;;;14.75;10.63;;;;;;;4.57;62.45;94445.66;5031403;28;20500;-69
2022/11/22 05:32:30;;;;;;;16.67;11.15;;;;;;;4.53;62.54;94443.78;5037245;28;20068;-70
2022/11/22 05:34:56;;;;;;;13.50;11.18;;;;;;;4.59;62.33;94444.09;5028644;28;20025;-69
2022/11/22 05:37:21;;;;;;;18.15;12.18;;;;;;;4.56;62.45;94444.88;5028394;28;20456;-68
2022/11/22 05:39:47;;;;;;;19.67;11.15;;;;;;;4.62;62.51;94443.25;5027024;28;20496;-69
2022/11/22 05:42:12;;;;;;;13.98;10.88;;;;;;;4.59;62.37;94446.00;5028151;28;20480;-68
2022/11/22 05:44:38;;;;;;;16.42;11.57;;;;;;;4.63;62.49;94444.00;5027086;28;20053;-68
2022/11/22 05:47:03;;;;;;;15.40;11.02;;;;;;;4.69;62.54;94439.66;5027516;28;20412;-68
2022/11/22 05:49:29;;;;;;;15.15;11.15;;;;;;;4.75;62.57;94449.66;5030398;28;20017;-68
2022/11/22 05:51:54;;;;;;;12.98;10.25;;;;;;;4.75;62.34;94448.91;5027769;28;20461;-68
2022/11/22 05:54:20;;;;;;;13.13;9.50;;;;;;;4.80;62.46;94451.16;5027050;28;20025;-70
2022/11/22 05:56:47;;;;;;;16.17;11.23;;;;;;;4.86;62.16;94438.63;5026948;28;20029;-68
2022/11/22 05:59:12;;;;;;;17.48;11.50;;;;;;;4.91;62.10;94440.88;5028173;28;20697;-69
2022/11/22 06:01:38;;;;;;;14.50;11.05;;;;;;;4.87;62.27;94447.56;5026457;28;20473;-68
2022/11/22 06:04:04;;;;;;;15.90;11.65;;;;;;;4.88;62.22;94444.44;5027769;28;20017;-68
2022/11/22 06:06:29;;;;;;;15.32;12.25;;;;;;;4.95;62.04;94443.56;5026655;28;20116;-68
2022/11/22 06:08:54;;;;;;;19.83;14.07;;;;;;;4.97;61.93;94438.47;5027511;28;20388;-68
2022/11/22 06:11:21;;;;;;;19.30;14.93;;;;;;;4.98;62.25;94448.16;5026795;28;20496;-69
2022/11/22 06:13:48;;;;;;;22.05;15.68;;;;;;;5.02;62.09;94451.63;5026777;28;20025;-69
2022/11/22 06:16:14;;;;;;;21.63;15.27;;;;;;;5.05;62.08;94454.31;5027391;28;20034;-68
2022/11/22 06:18:39;;;;;;;18.65;14.20;;;;;;;5.01;62.29;94459.03;5026495;28;20092;-68
2022/11/22 06:21:06;;;;;;;17.48;12.10;;;;;;;5.11;62.11;94456.56;5027582;28;20132;-68
2022/11/22 06:23:32;;;;;;;14.82;12.43;;;;;;;5.11;61.76;94457.34;5026441;28;20117;-69
2022/11/22 06:26:09;;;;;;;21.98;13.88;;;;;;;5.22;61.78;94455.22;5026881;28;20434;-69
2022/11/22 06:28:35;;;;;;;16.98;12.55;;;;;;;5.33;61.30;94453.09;5027062;28;20025;-68
2022/11/22 06:31:05;;;;;;;16.98;12.13;;;;;;;5.38;61.18;94453.78;5026043;28;20474;-68
2022/11/22 06:33:31;;;;;;;15.30;10.65;;;;;;;5.34;61.49;94445.69;5027074;28;20021;-68
2022/11/22 06:36:19;;;;;;;13.85;10.60;;;;;;;5.40;61.27;94443.25;5008561;28;20026;-68
2022/11/22 06:38:45;;;;;;;17.13;11.88;;;;;;;5.46;61.35;94445.06;5026665;28;20029;-68
2022/11/22 06:41:12;;;;;;;15.48;10.05;;;;;;;5.57;60.98;94461.25;5008375;28;20038;-67
2022/11/22 06:43:38;;;;;;;21.38;12.27;;;;;;;5.58;61.08;94463.56;5026906;28;20021;-66
2022/11/22 06:46:04;;;;;;;15.85;12.40;;;;;;;5.59;61.19;94472.50;5026431;28;20064;-69
2022/11/22 06:48:30;;;;;;;12.00;9.57;;;;;;;5.72;60.63;94476.16;5004958;28;20053;-68
2022/11/22 06:51:00;;;;;;;15.57;10.20;;;;;;;5.96;60.32;94487.06;5006974;28;20057;-68
2022/11/22 06:53:27;;;;;;;11.98;8.60;;;;;;;6.02;60.04;94475.28;5006469;28;20036;-72
2022/11/22 06:56:00;;;;;;;11.43;8.73;;;;;;;6.14;59.79;94482.09;5009556;28;20033;-67
2022/11/22 06:58:26;;;;;;;11.48;8.45;;;;;;;6.33;59.14;94473.13;5006704;28;20075;-68
2022/11/22 07:00:51;;;;;;;14.05;8.55;;;;;;;6.52;58.34;94471.56;4999588;28;20046;-68
2022/11/22 07:03:17;;;;;;;10.85;9.43;;;;;;;6.71;57.92;94470.00;5008600;28;20463;-70
2022/11/22 07:05:51;;;;;;;12.80;9.48;;;;;;;6.91;57.78;94469.97;5007463;28;20169;-67
2022/11/22 07:08:17;;;;;;;11.90;9.63;;;;;;;7.03;57.38;94474.75;4989441;28;20030;-68
2022/11/22 07:10:42;;;;;;;11.27;9.10;;;;;;;7.18;57.25;94472.47;5006064;28;20025;-69
2022/11/22 07:13:08;;;;;;;12.43;9.00;;;;;;;7.32;56.87;94461.19;5006527;28;20029;-68
2022/11/22 07:15:33;;;;;;;12.65;10.15;;;;;;;7.51;56.80;94458.78;5006173;28;20026;-67
2022/11/22 07:17:58;;;;;;;20.25;13.68;;;;;;;7.55;56.78;94465.72;5006207;28;20021;-68
2022/11/22 07:20:24;;;;;;;25.05;15.55;;;;;;;7.66;56.59;94470.94;5005933;28;20169;-68
2022/11/22 07:22:49;;;;;;;21.58;14.70;;;;;;;7.78;56.10;94474.94;5006254;28;20026;-68
2022/11/22 07:25:15;;;;;;;21.58;14.13;;;;;;;7.91;55.33;94465.63;5006580;28;20030;-67
2022/11/22 07:27:40;;;;;;;18.73;14.07;;;;;;;8.18;54.92;94480.94;5005958;28;20022;-68
2022/11/22 07:30:06;;;;;;;18.35;12.98;;;;;;;8.37;54.45;94474.59;5006726;28;20026;-68
2022/11/22 07:32:32;;;;;;;23.23;14.95;;;;;;;8.49;54.28;94473.09;5005739;28;20034;-68
2022/11/22 07:34:57;;;;;;;29.13;20.17;;;;;;;8.80;53.67;94458.88;5006289;28;20037;-68
2022/11/22 07:37:23;;;;;;;28.88;21.08;;;;;;;8.89;53.33;94443.34;5005853;28;20080;-68
2022/11/22 07:39:48;;;;;;;31.70;22.30;;;;;;;9.12;52.68;94444.19;5006477;28;20030;-67
2022/11/22 07:42:13;;;;;;;30.45;21.33;;;;;;;9.41;52.25;94444.84;5005746;28;20022;-68
2022/11/22 07:44:39;;;;;;;28.85;20.70;;;;;;;9.71;51.30;94437.22;5005966;28;20022;-67
2022/11/22 07:47:04;;;;;;;30.88;20.23;;;;;;;10.07;49.96;94439.53;5007038;28;20034;-68
2022/11/22 07:49:30;;;;;;;27.17;19.45;;;;;;;10.31;49.74;94445.38;5025375;28;20049;-67
2022/11/22 07:51:55;;;;;;;28.85;20.73;;;;;;;10.44;49.05;94448.09;5026237;28;20484;-67
2022/11/22 07:54:21;;;;;;;26.23;20.13;;;;;;;10.57;49.12;94451.53;5025222;28;20569;-67
2022/11/22 07:56:46;;;;;;;30.13;21.25;;;;;;;10.65;48.66;94466.53;5026202;28;20029;-67
2022/11/22 07:59:11;;;;;;;31.38;20.05;;;;;;;10.74;48.80;94469.34;5026930;28;20025;-67
2022/11/22 08:01:37;;;;;;;24.65;19.98;;;;;;;10.75;47.65;94470.09;5030357;28;20025;-67
2022/11/22 08:04:02;;;;;;;30.13;20.25;;;;;;;10.91;47.81;94464.41;5027483;28;20033;-68
2022/11/22 08:06:28;;;;;;;25.75;18.55;;;;;;;10.93;47.84;94453.72;5025354;28;20029;-68
2022/11/22 08:08:53;;;;;;;26.52;18.73;;;;;;;10.86;47.59;94448.47;5026779;28;20037;-68
2022/11/22 08:11:19;;;;;;;25.25;18.30;;;;;;;10.63;48.11;94446.97;5024622;28;20060;-67
2022/11/22 08:13:44;;;;;;;25.77;18.63;;;;;;;10.51;48.49;94448.59;5026202;28;20033;-67
2022/11/22 08:16:12;;;;;;;23.67;18.10;;;;;;;10.93;48.18;94442.72;5026045;28;20025;-67
2022/11/22 08:18:37;;;;;;;24.73;19.33;;;;;;;11.43;46.90;94440.78;5010524;28;20061;-67
2022/11/22 08:21:05;;;;;;;25.40;19.42;;;;;;;11.68;47.03;94437.78;5027942;28;20445;-67
2022/11/22 08:23:30;;;;;;;23.80;18.90;;;;;;;11.77;46.98;94448.03;5029092;28;20030;-67
2022/11/22 08:25:57;;;;;;;25.42;20.35;;;;;;;11.75;46.92;94436.69;5011951;28;20029;-68
2022/11/22 08:28:22;;;;;;;27.10;20.65;;;;;;;11.80;46.53;94429.84;5028617;28;20107;-68
2022/11/22 08:30:48;;;;;;;28.80;20.75;;;;;;;11.85;46.09;94421.00;5029364;28;20395;-68
2022/11/22 08:33:13;;;;;;;29.73;21.85;;;;;;;11.85;46.90;94419.00;5027252;28;20165;-67
2022/11/22 08:35:39;;;;;;;26.05;19.70;;;;;;;11.73;46.42;94424.63;5008993;28;20460;-68
2022/11/22 08:38:04;;;;;;;24.52;18.20;;;;;;;11.55;46.54;94404.09;5028182;28;20032;-68
2022/11/22 08:40:30;;;;;;;25.92;20.15;;;;;;;11.48;46.55;94411.91;5029072;28;20026;-68
2022/11/22 08:42:55;;;;;;;22.83;18.63;;;;;;;11.47;46.67;94397.38;5029012;28;20017;-67
2022/11/22 08:45:21;;;;;;;20.92;15.32;;;;;;;11.51;46.49;94389.72;5028356;28;20026;-68
2022/11/22 08:47:47;;;;;;;17.00;12.80;;;;;;;11.51;46.69;94386.19;5029303;28;20127;-66
2022/11/22 08:50:13;;;;;;;16.73;13.45;;;;;;;11.27;46.99;94380.50;5027677;28;20147;-67
2022/11/22 08:52:39;;;;;;;19.23;14.82;;;;;;;10.74;47.99;94386.09;5029135;28;20044;-67
2022/11/22 08:55:06;;;;;;;21.42;13.50;;;;;;;10.69;48.76;94398.44;5028274;28;20041;-67
2022/11/22 08:57:31;;;;;;;18.00;13.35;;;;;;;10.58;49.13;94390.59;5010764;28;20187;-67
2022/11/22 08:59:56;;;;;;;19.08;13.80;;;;;;;10.32;50.00;94389.22;5010411;28;20458;-67
2022/11/22 09:02:22;;;;;;;17.80;12.57;;;;;;;10.10;50.43;94387.22;5028274;28;20464;-67
2022/11/22 09:04:47;;;;;;;18.15;13.77;;;;;;;10.23;50.40;94394.63;5030549;28;20022;-67
2022/11/22 09:07:13;;;;;;;16.80;11.82;;;;;;;10.24;50.63;94390.69;5028247;28;20068;-67
2022/11/22 09:09:38;;;;;;;15.65;11.88;;;;;;;10.33;50.33;94386.03;5029170;28;20025;-67
2022/11/22 09:12:04;;;;;;;14.93;12.23;;;;;;;10.48;49.85;94385.50;5027572;28;20026;-67
2022/11/22 09:14:29;;;;;;;17.83;13.20;;;;;;;10.32;50.18;94384.50;5028548;28;20022;-68
2022/11/22 09:16:55;;;;;;;16.38;12.25;;;;;;;10.04;50.88;94386.25;5028006;28;20033;-67
2022/11/22 09:19:20;;;;;;;18.65;13.85;;;;;;;10.23;50.46;94387.19;5028055;28;20083;-66
2022/11/22 09:21:45;;;;;;;15.60;12.43;;;;;;;10.21;50.59;94384.09;5028118;28;20052;-68
2022/11/22 09:24:12;;;;;;;15.95;12.30;;;;;;;10.31;50.74;94380.19;5027816;28;20029;-69
2022/11/22 09:26:38;;;;;;;17.42;12.60;;;;;;;10.47;50.30;94389.47;5028597;28;20036;-67
2022/11/22 09:29:03;;;;;;;17.58;12.57;;;;;;;10.44;50.55;94384.88;5026776;28;20029;-66
2022/11/22 09:31:29;;;;;;;18.30;12.60;;;;;;;10.52;50.32;94397.13;5028313;28;20083;-66
2022/11/22 09:33:54;;;;;;;17.10;12.13;;;;;;;10.63;50.13;94381.78;5009906;28;20546;-67
2022/11/22 09:36:21;;;;;;;18.45;13.48;;;;;;;10.74;49.84;94375.09;5027825;28;20029;-66
2022/11/22 09:38:47;;;;;;;17.75;13.23;;;;;;;10.89;49.62;94365.84;5027426;28;20068;-67
2022/11/22 09:41:15;;;;;;;15.13;12.32;;;;;;;10.95;49.88;94357.75;5027977;28;20025;-67
2022/11/22 09:43:48;;;;;;;17.77;12.98;;;;;;;11.19;49.78;94365.50;5028292;28;20036;-66
2022/11/22 09:46:47;;;;;;;18.90;13.35;;;;;;;11.07;48.96;94359.66;5009532;28;20025;-67
2022/11/22 09:49:25;;;;;;;16.65;12.35;;;;;;;11.15;48.90;94357.38;5006630;28;20131;-67
2022/11/22 09:52:16;;;;;;;19.05;12.73;;;;;;;11.09;49.25;94339.94;5027247;28;20108;-67
2022/11/22 09:54:43;;;;;;;20.63;13.43;;;;;;;10.97;49.36;94346.31;4992869;28;20033;-67
2022/11/22 09:57:13;;;;;;;17.60;12.38;;;;;;;11.04;48.96;94349.56;5010311;28;20036;-68
2022/11/22 09:59:38;;;;;;;17.33;12.07;;;;;;;10.98;48.38;94336.84;5008858;28;20029;-67
2022/11/22 10:02:26;;;;;;;15.85;11.23;;;;;;;10.99;49.35;94346.63;5009788;28;20032;-67
2022/11/22 10:05:16;;;;;;;16.42;11.35;;;;;;;11.35;48.38;94337.69;5008768;28;20428;-68
2022/11/22 10:08:10;;;;;;;16.70;10.95;;;;;;;12.02;46.23;94345.09;4986811;28;20474;-66
2022/11/22 10:10:41;;;;;;;13.50;10.88;;;;;;;12.42;45.16;94344.88;4996340;28;20408;-67
2022/11/22 10:13:24;;;;;;;11.85;8.00;;;;;;;12.71;42.87;94335.31;5008599;28;20039;-68
2022/11/22 10:16:31;;;;;;;12.27;8.27;;;;;;;12.76;42.34;94321.66;5010337;28;20018;-67
2022/11/22 10:19:22;;;;;;;9.45;8.07;;;;;;;14.94;38.17;94331.97;5027057;28;20062;-67
2022/11/22 10:21:48;;;;;;;10.10;8.05;;;;;;;15.80;36.98;94316.78;5026729;28;20060;-66
2022/11/22 10:24:14;;;;;;;11.23;7.72;;;;;;;16.72;35.08;94307.66;5027609;28;20459;-67
2022/11/22 10:26:40;;;;;;;12.88;8.10;;;;;;;18.18;33.29;94314.03;5009094;28;20044;-67
2022/11/22 10:29:34;;;;;;;10.55;8.52;;;;;;;19.18;32.05;94299.47;5026599;28;20479;-67
2022/11/22 10:32:10;;;;;;;13.15;9.30;;;;;;;20.45;31.10;94300.81;5009329;28;20517;-66
2022/11/22 10:35:03;;;;;;;12.27;8.43;;;;;;;21.11;29.13;94296.03;5008557;28;20029;-66
2022/11/22 10:37:37;;;;;;;11.15;8.90;;;;;;;22.74;27.07;94289.28;5029275;28;20089;-66
2022/11/22 10:40:22;;;;;;;9.63;8.50;;;;;;;23.81;25.29;94291.84;5010941;28;20236;-67
2022/11/22 10:43:06;;;;;;;10.60;8.10;;;;;;;24.71;24.80;94280.78;4991942;28;20496;-68
2022/11/22 10:45:36;;;;;;;7.45;6.60;;;;;;;25.73;24.48;94293.88;5009598;28;20021;-68
2022/11/22 10:48:35;;;;;;;7.07;5.95;;;;;;;23.69;23.97;94282.13;5008413;28;20049;-67
2022/11/22 10:51:15;;;;;;;6.05;5.45;;;;;;;21.70;26.68;94280.47;5026118;28;20095;-67
2022/11/22 10:54:04;;;;;;;6.60;5.47;;;;;;;20.87;27.77;94266.00;5026707;28;20068;-68
2022/11/22 10:56:34;;;;;;;5.55;5.00;;;;;;;19.17;29.75;94272.88;5008110;28;20536;-67
2022/11/22 10:59:21;;;;;;;5.82;5.13;;;;;;;18.65;31.22;94273.41;4992586;28;20476;-67
2022/11/22 11:02:02;;;;;;;6.38;5.65;;;;;;;17.85;32.08;94262.63;5026460;28;20033;-67
2022/11/22 11:04:30;;;;;;;7.15;5.88;;;;;;;17.39;33.30;94269.25;5008332;28;20051;-67
2022/11/22 11:06:56;;;;;;;7.75;6.38;;;;;;;16.83;34.07;94262.59;4992486;28;20025;-66
2022/11/22 11:09:24;;;;;;;9.95;6.95;;;;;;;16.10;35.51;94268.22;5008077;28;20033;-67
2022/11/22 11:11:50;;;;;;;9.00;6.68;;;;;;;15.79;36.02;94262.63;5026143;28;20041;-68
2022/11/22 11:14:35;;;;;;;8.48;6.78;;;;;;;15.56;36.64;94256.03;5009390;28;20036;-70
2022/11/22 11:17:00;;;;;;;10.80;7.95;;;;;;;15.36;37.03;94254.78;5009375;28;20052;-68
2022/11/22 11:19:28;;;;;;;10.45;8.13;;;;;;;15.09;37.82;94247.66;4992526;28;20021;-67
2022/11/22 11:21:59;;;;;;;10.68;7.72;;;;;;;14.86;38.43;94259.66;5025362;28;20053;-68
2022/11/22 11:24:29;;;;;;;12.80;9.27;;;;;;;14.52;38.98;94258.38;5026495;28;20025;-68
2022/11/22 11:26:55;;;;;;;10.73;8.65;;;;;;;14.33;39.94;94260.53;5008357;28;20163;-68
2022/11/22 11:29:56;;;;;;;11.45;8.00;;;;;;;14.12;40.31;94261.69;4992145;28;20116;-68
2022/11/22 11:32:21;;;;;;;11.45;8.80;;;;;;;13.89;40.66;94253.00;4945962;29;20043;-69
2022/11/22 11:34:59;;;;;;;9.48;7.53;;;;;;;13.71;40.97;94242.13;4944801;29;20038;-70
2022/11/22 11:37:37;;;;;;;11.27;8.75;;;;;;;13.57;41.57;94231.81;4945703;29;20179;-69
2022/11/22 11:40:03;;;;;;;11.98;9.00;;;;;;;13.24;42.03;94221.63;4945204;29;20078;-67
2022/11/22 11:42:30;;;;;;;12.73;9.07;;;;;;;13.24;42.26;94227.16;4928956;29;20118;-67
2022/11/22 11:45:17;;;;;;;11.88;8.82;;;;;;;12.99;42.28;94218.09;4945666;29;20072;-70
2022/11/22 11:47:43;;;;;;;12.80;9.02;;;;;;;12.80;42.96;94219.44;4944278;28;20047;-71
2022/11/22 11:50:30;;;;;;;13.80;8.52;;;;;;;12.79;43.05;94217.13;4945741;28;20054;-70